sensor_id;sensor_type;location;lat;lon;timestamp;temperature;humidity
4727;DHT22;2377;51.734;8.950;2023-02-26T00:00:57;-0.10;1.00
4727;DHT22;2377;51.734;8.950;2023-02-26T00:03:25;-0.10;1.00
4727;DHT22;2377;51.734;8.950;2023-02-26T00:05:52;-0.20;1.00
4727;DHT22;2377;51.734;8.950;2023-02-26T00:08:20;-0.20;1.00
4727;DHT22;2377;51.734;8.950;2023-02-26T00:10:47;-0.20;1.00
4727;DHT22;2377;51.734;8.950;2023-02-26T00:13:14;-0.20;1.00
4727;DHT22;2377;51.734;8.950;2023-02-26T00:15:42;-0.30;1.00
4727;DHT22;2377;51.734;8.950;2023-02-26T00:18:13;-0.30;1.00
4727;DHT22;2377;51.734;8.950;2023-02-26T00:20:42;-0.30;1.00
4727;DHT22;2377;51.734;8.950;2023-02-26T00:23:11;-0.30;1.00
4727;DHT22;2377;51.734;8.950;2023-02-26T00:25:41;-0.30;1.00
4727;DHT22;2377;51.734;8.950;2023-02-26T00:28:09;-0.30;1.00
4727;DHT22;2377;51.734;8.950;2023-02-26T00:30:37;-0.30;1.00
4727;DHT22;2377;51.734;8.950;2023-02-26T00:33:06;-0.30;1.00
4727;DHT22;2377;51.734;8.950;2023-02-26T00:35:34;-0.40;1.00
4727;DHT22;2377;51.734;8.950;2023-02-26T00:38:02;-0.40;1.00
4727;DHT22;2377;51.734;8.950;2023-02-26T00:40:37;-0.50;1.00
4727;DHT22;2377;51.734;8.950;2023-02-26T00:43:13;-0.50;1.00
4727;DHT22;2377;51.734;8.950;2023-02-26T00:45:44;-0.50;1.00
4727;DHT22;2377;51.734;8.950;2023-02-26T00:48:29;-0.50;1.00
4727;DHT22;2377;51.734;8.950;2023-02-26T00:51:09;-0.50;1.00
4727;DHT22;2377;51.734;8.950;2023-02-26T00:53:47;-0.60;1.00
4727;DHT22;2377;51.734;8.950;2023-02-26T00:56:21;-0.60;1.00
4727;DHT22;2377;51.734;8.950;2023-02-26T00:58:49;-0.60;1.00
4727;DHT22;2377;51.734;8.950;2023-02-26T01:01:16;-0.60;1.00
4727;DHT22;2377;51.734;8.950;2023-02-26T01:03:43;-0.60;1.00
4727;DHT22;2377;51.734;8.950;2023-02-26T01:06:12;-0.60;1.00
4727;DHT22;2377;51.734;8.950;2023-02-26T01:08:49;-0.60;1.00
4727;DHT22;2377;51.734;8.950;2023-02-26T01:11:22;-0.60;1.00
4727;DHT22;2377;51.734;8.950;2023-02-26T01:13:50;-0.60;1.00
4727;DHT22;2377;51.734;8.950;2023-02-26T01:16:24;-0.60;1.00
4727;DHT22;2377;51.734;8.950;2023-02-26T01:18:55;-0.70;1.00
4727;DHT22;2377;51.734;8.950;2023-02-26T01:21:32;-0.70;1.00
4727;DHT22;2377;51.734;8.950;2023-02-26T01:24:04;-0.60;1.00
4727;DHT22;2377;51.734;8.950;2023-02-26T01:26:38;-0.70;1.00
4727;DHT22;2377;51.734;8.950;2023-02-26T01:29:06;-0.70;1.00
4727;DHT22;2377;51.734;8.950;2023-02-26T01:31:38;-0.70;1.00
4727;DHT22;2377;51.734;8.950;2023-02-26T01:34:17;-0.70;1.00
4727;DHT22;2377;51.734;8.950;2023-02-26T01:36:53;-0.80;1.00
4727;DHT22;2377;51.734;8.950;2023-02-26T01:39:31;-0.80;1.00
4727;DHT22;2377;51.734;8.950;2023-02-26T01:42:12;-0.80;1.00
4727;DHT22;2377;51.734;8.950;2023-02-26T01:44:52;-0.80;1.00
4727;DHT22;2377;51.734;8.950;2023-02-26T01:47:29;-0.80;1.00
4727;DHT22;2377;51.734;8.950;2023-02-26T01:50:10;-0.80;1.00
4727;DHT22;2377;51.734;8.950;2023-02-26T01:53:16;-0.80;1.00
4727;DHT22;2377;51.734;8.950;2023-02-26T01:55:49;-0.80;1.00
4727;DHT22;2377;51.734;8.950;2023-02-26T01:58:24;-0.70;1.00
4727;DHT22;2377;51.734;8.950;2023-02-26T02:00:53;-0.80;1.00
4727;DHT22;2377;51.734;8.950;2023-02-26T02:03:21;-0.70;1.00
4727;DHT22;2377;51.734;8.950;2023-02-26T02:05:54;-0.80;1.00
4727;DHT22;2377;51.734;8.950;2023-02-26T02:08:24;-0.80;1.00
4727;DHT22;2377;51.734;8.950;2023-02-26T02:10:51;-0.80;1.00
4727;DHT22;2377;51.734;8.950;2023-02-26T02:13:29;-0.60;1.00
4727;DHT22;2377;51.734;8.950;2023-02-26T02:16:13;-0.60;1.00
4727;DHT22;2377;51.734;8.950;2023-02-26T02:18:52;-0.60;1.00
4727;DHT22;2377;51.734;8.950;2023-02-26T02:21:39;-0.50;1.00
4727;DHT22;2377;51.734;8.950;2023-02-26T02:24:23;-0.50;1.00
4727;DHT22;2377;51.734;8.950;2023-02-26T02:27:10;-0.60;1.00
4727;DHT22;2377;51.734;8.950;2023-02-26T02:30:06;-0.60;1.00
4727;DHT22;2377;51.734;8.950;2023-02-26T02:32:50;-0.60;1.00
4727;DHT22;2377;51.734;8.950;2023-02-26T02:35:25;-0.50;1.00
4727;DHT22;2377;51.734;8.950;2023-02-26T02:37:59;-0.50;1.00
4727;DHT22;2377;51.734;8.950;2023-02-26T02:40:34;-0.50;1.00
4727;DHT22;2377;51.734;8.950;2023-02-26T02:43:11;-0.50;1.00
4727;DHT22;2377;51.734;8.950;2023-02-26T02:45:42;-0.50;1.00
4727;DHT22;2377;51.734;8.950;2023-02-26T02:48:17;-0.50;1.00
4727;DHT22;2377;51.734;8.950;2023-02-26T02:50:52;-0.50;1.00
4727;DHT22;2377;51.734;8.950;2023-02-26T02:53:27;-0.50;1.00
4727;DHT22;2377;51.734;8.950;2023-02-26T02:56:04;-0.50;1.00
4727;DHT22;2377;51.734;8.950;2023-02-26T02:58:39;-0.50;1.00
4727;DHT22;2377;51.734;8.950;2023-02-26T03:01:12;-0.50;1.00
4727;DHT22;2377;51.734;8.950;2023-02-26T03:03:47;-0.40;1.00
4727;DHT22;2377;51.734;8.950;2023-02-26T03:06:17;-0.50;1.00
4727;DHT22;2377;51.734;8.950;2023-02-26T03:08:46;-0.50;1.00
4727;DHT22;2377;51.734;8.950;2023-02-26T03:11:15;-0.50;1.00
4727;DHT22;2377;51.734;8.950;2023-02-26T03:13:42;-0.40;1.00
4727;DHT22;2377;51.734;8.950;2023-02-26T03:16:39;-0.50;1.00
4727;DHT22;2377;51.734;8.950;2023-02-26T03:19:22;-0.50;1.00
4727;DHT22;2377;51.734;8.950;2023-02-26T03:21:59;-0.50;1.00
4727;DHT22;2377;51.734;8.950;2023-02-26T03:24:36;-0.50;1.00
4727;DHT22;2377;51.734;8.950;2023-02-26T03:27:15;-0.50;1.00
4727;DHT22;2377;51.734;8.950;2023-02-26T03:29:52;-0.50;1.00
4727;DHT22;2377;51.734;8.950;2023-02-26T03:32:25;-0.50;1.00
4727;DHT22;2377;51.734;8.950;2023-02-26T03:35:03;-0.50;1.00
4727;DHT22;2377;51.734;8.950;2023-02-26T03:37:36;-0.50;1.00
4727;DHT22;2377;51.734;8.950;2023-02-26T03:40:10;-0.50;1.00
4727;DHT22;2377;51.734;8.950;2023-02-26T03:42:46;-0.50;1.00
4727;DHT22;2377;51.734;8.950;2023-02-26T03:45:19;-0.50;1.00
4727;DHT22;2377;51.734;8.950;2023-02-26T03:47:53;-0.50;1.00
4727;DHT22;2377;51.734;8.950;2023-02-26T03:50:27;-0.60;1.00
4727;DHT22;2377;51.734;8.950;2023-02-26T03:53:00;-0.60;1.00
4727;DHT22;2377;51.734;8.950;2023-02-26T03:55:35;-0.60;1.00
4727;DHT22;2377;51.734;8.950;2023-02-26T03:58:07;-0.60;1.00
4727;DHT22;2377;51.734;8.950;2023-02-26T04:00:36;-0.60;1.00
4727;DHT22;2377;51.734;8.950;2023-02-26T04:03:10;-0.60;1.00
4727;DHT22;2377;51.734;8.950;2023-02-26T04:05:45;-0.60;1.00
4727;DHT22;2377;51.734;8.950;2023-02-26T04:08:15;-0.60;1.00
4727;DHT22;2377;51.734;8.950;2023-02-26T04:10:46;-0.60;1.00
4727;DHT22;2377;51.734;8.950;2023-02-26T04:13:19;-0.70;1.00
4727;DHT22;2377;51.734;8.950;2023-02-26T04:15:46;-0.70;1.00
4727;DHT22;2377;51.734;8.950;2023-02-26T04:18:13;-0.80;1.00
4727;DHT22;2377;51.734;8.950;2023-02-26T04:20:41;-0.80;1.00
4727;DHT22;2377;51.734;8.950;2023-02-26T04:23:09;-0.80;1.00
4727;DHT22;2377;51.734;8.950;2023-02-26T04:25:36;-0.80;1.00
4727;DHT22;2377;51.734;8.950;2023-02-26T04:28:03;-0.80;1.00
4727;DHT22;2377;51.734;8.950;2023-02-26T04:30:30;-0.80;1.00
4727;DHT22;2377;51.734;8.950;2023-02-26T04:32:57;-0.80;1.00
4727;DHT22;2377;51.734;8.950;2023-02-26T04:35:24;-0.80;1.00
4727;DHT22;2377;51.734;8.950;2023-02-26T04:37:53;-0.80;1.00
4727;DHT22;2377;51.734;8.950;2023-02-26T04:40:20;-0.80;1.00
4727;DHT22;2377;51.734;8.950;2023-02-26T04:42:48;-0.90;1.00
4727;DHT22;2377;51.734;8.950;2023-02-26T04:45:15;-0.90;1.00
4727;DHT22;2377;51.734;8.950;2023-02-26T04:47:42;-1.00;1.00
4727;DHT22;2377;51.734;8.950;2023-02-26T04:50:10;-0.90;1.00
4727;DHT22;2377;51.734;8.950;2023-02-26T04:52:37;-0.90;1.00
4727;DHT22;2377;51.734;8.950;2023-02-26T04:55:06;-0.90;1.00
4727;DHT22;2377;51.734;8.950;2023-02-26T04:57:34;-0.90;1.00
4727;DHT22;2377;51.734;8.950;2023-02-26T05:00:01;-0.90;1.00
4727;DHT22;2377;51.734;8.950;2023-02-26T05:02:31;-0.90;1.00
4727;DHT22;2377;51.734;8.950;2023-02-26T05:04:58;-0.80;1.00
4727;DHT22;2377;51.734;8.950;2023-02-26T05:07:25;-0.80;1.00
4727;DHT22;2377;51.734;8.950;2023-02-26T05:09:52;-0.80;1.00
4727;DHT22;2377;51.734;8.950;2023-02-26T05:12:20;-0.80;1.00
4727;DHT22;2377;51.734;8.950;2023-02-26T05:14:47;-0.80;1.00
4727;DHT22;2377;51.734;8.950;2023-02-26T05:17:14;-0.80;1.00
4727;DHT22;2377;51.734;8.950;2023-02-26T05:19:41;-0.80;1.00
4727;DHT22;2377;51.734;8.950;2023-02-26T05:22:08;-0.80;1.00
4727;DHT22;2377;51.734;8.950;2023-02-26T05:24:37;-0.80;1.00
4727;DHT22;2377;51.734;8.950;2023-02-26T05:27:04;-0.70;1.00
4727;DHT22;2377;51.734;8.950;2023-02-26T05:29:32;-0.70;1.00
4727;DHT22;2377;51.734;8.950;2023-02-26T05:31:59;-0.60;1.00
4727;DHT22;2377;51.734;8.950;2023-02-26T05:34:26;-0.60;1.00
4727;DHT22;2377;51.734;8.950;2023-02-26T05:36:53;-0.60;1.00
4727;DHT22;2377;51.734;8.950;2023-02-26T05:39:20;-0.60;1.00
4727;DHT22;2377;51.734;8.950;2023-02-26T05:41:47;-0.60;1.00
4727;DHT22;2377;51.734;8.950;2023-02-26T05:44:16;-0.60;1.00
4727;DHT22;2377;51.734;8.950;2023-02-26T05:46:44;-0.60;1.00
4727;DHT22;2377;51.734;8.950;2023-02-26T05:49:12;-0.60;1.00
4727;DHT22;2377;51.734;8.950;2023-02-26T05:51:39;-0.60;1.00
4727;DHT22;2377;51.734;8.950;2023-02-26T05:54:07;-0.70;1.00
4727;DHT22;2377;51.734;8.950;2023-02-26T05:56:35;-0.60;1.00
4727;DHT22;2377;51.734;8.950;2023-02-26T05:59:02;-0.60;1.00
4727;DHT22;2377;51.734;8.950;2023-02-26T06:01:29;-0.70;1.00
4727;DHT22;2377;51.734;8.950;2023-02-26T06:03:58;-0.70;1.00
4727;DHT22;2377;51.734;8.950;2023-02-26T06:06:25;-0.70;1.00
4727;DHT22;2377;51.734;8.950;2023-02-26T06:08:52;-0.70;1.00
4727;DHT22;2377;51.734;8.950;2023-02-26T06:11:20;-0.70;1.00
4727;DHT22;2377;51.734;8.950;2023-02-26T06:13:47;-0.70;1.00
4727;DHT22;2377;51.734;8.950;2023-02-26T06:16:14;-0.80;1.00
4727;DHT22;2377;51.734;8.950;2023-02-26T06:18:41;-0.70;1.00
4727;DHT22;2377;51.734;8.950;2023-02-26T06:21:10;-0.80;1.00
4727;DHT22;2377;51.734;8.950;2023-02-26T06:23:37;-0.70;1.00
4727;DHT22;2377;51.734;8.950;2023-02-26T06:26:04;-0.80;1.00
4727;DHT22;2377;51.734;8.950;2023-02-26T06:28:32;-0.80;1.00
4727;DHT22;2377;51.734;8.950;2023-02-26T06:30:59;-0.80;1.00
4727;DHT22;2377;51.734;8.950;2023-02-26T06:33:26;-0.80;1.00
4727;DHT22;2377;51.734;8.950;2023-02-26T06:35:53;-0.80;1.00
4727;DHT22;2377;51.734;8.950;2023-02-26T06:38:22;-0.80;1.00
4727;DHT22;2377;51.734;8.950;2023-02-26T06:40:49;-0.80;1.00
4727;DHT22;2377;51.734;8.950;2023-02-26T06:43:16;-0.70;1.00
4727;DHT22;2377;51.734;8.950;2023-02-26T06:45:43;-0.70;1.00
4727;DHT22;2377;51.734;8.950;2023-02-26T06:48:10;-0.80;1.00
4727;DHT22;2377;51.734;8.950;2023-02-26T06:50:38;-0.80;1.00
4727;DHT22;2377;51.734;8.950;2023-02-26T06:53:05;-0.70;1.00
4727;DHT22;2377;51.734;8.950;2023-02-26T06:55:34;-0.60;1.00
4727;DHT22;2377;51.734;8.950;2023-02-26T06:58:01;-0.70;1.00
4727;DHT22;2377;51.734;8.950;2023-02-26T07:00:28;-0.70;1.00
4727;DHT22;2377;51.734;8.950;2023-02-26T07:02:55;-0.70;1.00
4727;DHT22;2377;51.734;8.950;2023-02-26T07:05:23;-0.70;1.00
4727;DHT22;2377;51.734;8.950;2023-02-26T07:07:50;-0.60;1.00
4727;DHT22;2377;51.734;8.950;2023-02-26T07:10:17;-0.60;1.00
4727;DHT22;2377;51.734;8.950;2023-02-26T07:12:47;-0.60;1.00
4727;DHT22;2377;51.734;8.950;2023-02-26T07:15:14;-0.60;1.00
4727;DHT22;2377;51.734;8.950;2023-02-26T07:17:42;-0.60;1.00
4727;DHT22;2377;51.734;8.950;2023-02-26T07:20:10;-0.60;1.00
4727;DHT22;2377;51.734;8.950;2023-02-26T07:22:39;-0.60;1.00
4727;DHT22;2377;51.734;8.950;2023-02-26T07:25:06;-0.60;1.00
4727;DHT22;2377;51.734;8.950;2023-02-26T07:27:33;-0.60;1.00
4727;DHT22;2377;51.734;8.950;2023-02-26T07:30:04;-0.60;1.00
4727;DHT22;2377;51.734;8.950;2023-02-26T07:32:33;-0.60;1.00
4727;DHT22;2377;51.734;8.950;2023-02-26T07:35:00;-0.50;1.00
4727;DHT22;2377;51.734;8.950;2023-02-26T07:37:27;-0.50;1.00
4727;DHT22;2377;51.734;8.950;2023-02-26T07:39:54;-0.50;1.00
4727;DHT22;2377;51.734;8.950;2023-02-26T07:42:21;-0.60;1.00
4727;DHT22;2377;51.734;8.950;2023-02-26T07:44:49;-0.60;1.00
4727;DHT22;2377;51.734;8.950;2023-02-26T07:47:17;-0.60;1.00
4727;DHT22;2377;51.734;8.950;2023-02-26T07:49:44;-0.50;1.00
4727;DHT22;2377;51.734;8.950;2023-02-26T07:52:11;-0.50;1.00
4727;DHT22;2377;51.734;8.950;2023-02-26T07:54:38;-0.50;1.00
4727;DHT22;2377;51.734;8.950;2023-02-26T07:57:05;-0.50;1.00
4727;DHT22;2377;51.734;8.950;2023-02-26T07:59:33;-0.30;1.00
4727;DHT22;2377;51.734;8.950;2023-02-26T08:02:00;-0.40;1.00
4727;DHT22;2377;51.734;8.950;2023-02-26T08:04:29;-0.40;1.00
4727;DHT22;2377;51.734;8.950;2023-02-26T08:06:57;-0.30;1.00
4727;DHT22;2377;51.734;8.950;2023-02-26T08:09:26;-0.30;1.00
4727;DHT22;2377;51.734;8.950;2023-02-26T08:11:53;-0.20;1.00
4727;DHT22;2377;51.734;8.950;2023-02-26T08:14:20;-0.10;1.00
4727;DHT22;2377;51.734;8.950;2023-02-26T08:16:47;0.00;1.00
4727;DHT22;2377;51.734;8.950;2023-02-26T08:19:14;0.00;1.00
4727;DHT22;2377;51.734;8.950;2023-02-26T08:21:43;0.00;1.00
4727;DHT22;2377;51.734;8.950;2023-02-26T08:24:10;0.10;1.00
4727;DHT22;2377;51.734;8.950;2023-02-26T08:26:37;0.30;1.00
4727;DHT22;2377;51.734;8.950;2023-02-26T08:29:05;0.40;1.00
4727;DHT22;2377;51.734;8.950;2023-02-26T08:31:32;0.50;1.00
4727;DHT22;2377;51.734;8.950;2023-02-26T08:34:00;0.50;1.00
4727;DHT22;2377;51.734;8.950;2023-02-26T08:36:27;0.50;1.00
4727;DHT22;2377;51.734;8.950;2023-02-26T08:38:56;0.60;1.00
4727;DHT22;2377;51.734;8.950;2023-02-26T08:41:23;0.60;1.00
4727;DHT22;2377;51.734;8.950;2023-02-26T08:43:52;0.60;1.00
4727;DHT22;2377;51.734;8.950;2023-02-26T08:46:19;0.70;1.00
4727;DHT22;2377;51.734;8.950;2023-02-26T08:48:46;0.80;1.00
4727;DHT22;2377;51.734;8.950;2023-02-26T08:51:13;0.80;1.00
4727;DHT22;2377;51.734;8.950;2023-02-26T08:53:41;1.00;1.00
4727;DHT22;2377;51.734;8.950;2023-02-26T08:56:11;1.30;1.00
4727;DHT22;2377;51.734;8.950;2023-02-26T08:58:38;1.60;1.00
4727;DHT22;2377;51.734;8.950;2023-02-26T09:01:05;1.80;1.00
4727;DHT22;2377;51.734;8.950;2023-02-26T09:03:32;1.80;1.00
4727;DHT22;2377;51.734;8.950;2023-02-26T09:05:59;1.80;1.00
4727;DHT22;2377;51.734;8.950;2023-02-26T09:08:26;2.00;1.00
4727;DHT22;2377;51.734;8.950;2023-02-26T09:10:59;2.10;1.00
4727;DHT22;2377;51.734;8.950;2023-02-26T09:13:28;2.30;99.90
4727;DHT22;2377;51.734;8.950;2023-02-26T09:15:56;2.40;99.90
4727;DHT22;2377;51.734;8.950;2023-02-26T09:18:23;2.50;99.90
4727;DHT22;2377;51.734;8.950;2023-02-26T09:20:50;2.60;99.90
4727;DHT22;2377;51.734;8.950;2023-02-26T09:23:19;2.80;99.90
4727;DHT22;2377;51.734;8.950;2023-02-26T09:25:50;3.10;99.90
4727;DHT22;2377;51.734;8.950;2023-02-26T09:28:18;3.30;99.90
4727;DHT22;2377;51.734;8.950;2023-02-26T10:02:27;1.50;99.90
4727;DHT22;2377;51.734;8.950;2023-02-26T10:05:11;1.50;99.90
4727;DHT22;2377;51.734;8.950;2023-02-26T10:07:47;3.30;99.90
4727;DHT22;2377;51.734;8.950;2023-02-26T10:10:28;3.10;99.90
4727;DHT22;2377;51.734;8.950;2023-02-26T10:13:01;2.60;99.90
4727;DHT22;2377;51.734;8.950;2023-02-26T10:15:31;2.40;99.90
4727;DHT22;2377;51.734;8.950;2023-02-26T10:18:09;2.10;99.90
4727;DHT22;2377;51.734;8.950;2023-02-26T10:20:45;1.90;99.90
4727;DHT22;2377;51.734;8.950;2023-02-26T10:23:23;2.00;99.90
4727;DHT22;2377;51.734;8.950;2023-02-26T10:26:01;2.10;99.90
4727;DHT22;2377;51.734;8.950;2023-02-26T10:28:38;2.00;99.90
4727;DHT22;2377;51.734;8.950;2023-02-26T10:31:21;2.50;99.90
4727;DHT22;2377;51.734;8.950;2023-02-26T10:33:59;2.80;99.90
4727;DHT22;2377;51.734;8.950;2023-02-26T10:36:39;3.00;99.90
4727;DHT22;2377;51.734;8.950;2023-02-26T10:39:21;2.80;99.90
4727;DHT22;2377;51.734;8.950;2023-02-26T10:41:55;2.90;99.90
4727;DHT22;2377;51.734;8.950;2023-02-26T10:44:29;2.80;99.90
4727;DHT22;2377;51.734;8.950;2023-02-26T10:47:06;2.70;99.90
4727;DHT22;2377;51.734;8.950;2023-02-26T10:49:51;2.80;99.90
4727;DHT22;2377;51.734;8.950;2023-02-26T10:52:22;2.80;99.90
4727;DHT22;2377;51.734;8.950;2023-02-26T10:55:06;2.90;99.90
4727;DHT22;2377;51.734;8.950;2023-02-26T10:57:49;3.00;99.90
4727;DHT22;2377;51.734;8.950;2023-02-26T11:00:22;3.00;99.90
4727;DHT22;2377;51.734;8.950;2023-02-26T11:02:51;3.00;99.90
4727;DHT22;2377;51.734;8.950;2023-02-26T11:05:23;3.00;99.90
4727;DHT22;2377;51.734;8.950;2023-02-26T11:07:54;2.80;99.90
4727;DHT22;2377;51.734;8.950;2023-02-26T11:10:27;2.80;99.90
4727;DHT22;2377;51.734;8.950;2023-02-26T11:13:04;3.00;99.90
4727;DHT22;2377;51.734;8.950;2023-02-26T11:15:31;3.10;99.90
4727;DHT22;2377;51.734;8.950;2023-02-26T11:17:59;3.10;99.90
4727;DHT22;2377;51.734;8.950;2023-02-26T11:20:35;3.30;99.90
4727;DHT22;2377;51.734;8.950;2023-02-26T11:23:12;3.40;99.90
4727;DHT22;2377;51.734;8.950;2023-02-26T11:25:41;3.30;99.90
4727;DHT22;2377;51.734;8.950;2023-02-26T11:28:20;3.00;99.90
4727;DHT22;2377;51.734;8.950;2023-02-26T11:30:50;2.90;99.90
4727;DHT22;2377;51.734;8.950;2023-02-26T11:33:22;3.00;99.90
4727;DHT22;2377;51.734;8.950;2023-02-26T11:35:58;2.80;99.90
4727;DHT22;2377;51.734;8.950;2023-02-26T11:38:27;2.80;99.90
4727;DHT22;2377;51.734;8.950;2023-02-26T11:40:57;2.70;99.90
4727;DHT22;2377;51.734;8.950;2023-02-26T11:43:34;2.80;99.90
4727;DHT22;2377;51.734;8.950;2023-02-26T11:46:07;2.80;99.90
4727;DHT22;2377;51.734;8.950;2023-02-26T11:48:40;2.80;99.90
4727;DHT22;2377;51.734;8.950;2023-02-26T11:51:14;2.80;99.90
4727;DHT22;2377;51.734;8.950;2023-02-26T11:53:48;3.00;99.90
4727;DHT22;2377;51.734;8.950;2023-02-26T11:56:29;3.00;99.90
4727;DHT22;2377;51.734;8.950;2023-02-26T11:59:04;3.10;99.90
4727;DHT22;2377;51.734;8.950;2023-02-26T12:01:35;3.00;99.90
4727;DHT22;2377;51.734;8.950;2023-02-26T12:04:03;3.00;99.90
4727;DHT22;2377;51.734;8.950;2023-02-26T12:06:38;2.90;99.90
4727;DHT22;2377;51.734;8.950;2023-02-26T12:09:11;2.90;99.90
4727;DHT22;2377;51.734;8.950;2023-02-26T12:12:00;2.80;99.90
4727;DHT22;2377;51.734;8.950;2023-02-26T12:14:47;2.80;99.90
4727;DHT22;2377;51.734;8.950;2023-02-26T12:17:31;2.90;99.90
4727;DHT22;2377;51.734;8.950;2023-02-26T12:20:17;3.00;99.90
4727;DHT22;2377;51.734;8.950;2023-02-26T12:22:50;3.10;99.90
4727;DHT22;2377;51.734;8.950;2023-02-26T12:25:55;3.30;99.90
4727;DHT22;2377;51.734;8.950;2023-02-26T12:28:47;3.30;99.90
4727;DHT22;2377;51.734;8.950;2023-02-26T12:32:01;3.50;99.90
4727;DHT22;2377;51.734;8.950;2023-02-26T12:35:13;3.50;99.90
4727;DHT22;2377;51.734;8.950;2023-02-26T12:38:08;3.50;99.90
4727;DHT22;2377;51.734;8.950;2023-02-26T12:41:09;3.20;99.90
4727;DHT22;2377;51.734;8.950;2023-02-26T12:43:54;3.10;99.90
4727;DHT22;2377;51.734;8.950;2023-02-26T12:46:40;2.90;99.90
4727;DHT22;2377;51.734;8.950;2023-02-26T12:49:45;2.80;99.90
4727;DHT22;2377;51.734;8.950;2023-02-26T12:52:45;2.80;99.90
4727;DHT22;2377;51.734;8.950;2023-02-26T12:55:30;3.00;99.90
4727;DHT22;2377;51.734;8.950;2023-02-26T12:58:33;3.10;99.90
4727;DHT22;2377;51.734;8.950;2023-02-26T13:01:24;3.20;99.90
4727;DHT22;2377;51.734;8.950;2023-02-26T13:04:14;3.30;99.90
4727;DHT22;2377;51.734;8.950;2023-02-26T13:10:21;3.50;99.90
4727;DHT22;2377;51.734;8.950;2023-02-26T13:13:09;3.50;99.90
4727;DHT22;2377;51.734;8.950;2023-02-26T13:15:55;3.30;99.90
4727;DHT22;2377;51.734;8.950;2023-02-26T13:18:41;3.30;99.90
4727;DHT22;2377;51.734;8.950;2023-02-26T13:21:18;3.30;99.90
4727;DHT22;2377;51.734;8.950;2023-02-26T13:23:50;3.30;99.90
4727;DHT22;2377;51.734;8.950;2023-02-26T13:26:22;3.30;99.90
4727;DHT22;2377;51.734;8.950;2023-02-26T13:28:55;3.30;99.90
4727;DHT22;2377;51.734;8.950;2023-02-26T13:31:27;3.30;99.90
4727;DHT22;2377;51.734;8.950;2023-02-26T13:34:01;3.30;99.90
4727;DHT22;2377;51.734;8.950;2023-02-26T13:36:32;3.40;99.90
4727;DHT22;2377;51.734;8.950;2023-02-26T13:39:20;3.30;99.90
4727;DHT22;2377;51.734;8.950;2023-02-26T13:42:05;3.20;99.90
4727;DHT22;2377;51.734;8.950;2023-02-26T13:44:50;3.30;99.90
4727;DHT22;2377;51.734;8.950;2023-02-26T13:47:33;3.30;99.90
4727;DHT22;2377;51.734;8.950;2023-02-26T13:50:29;3.20;99.90
4727;DHT22;2377;51.734;8.950;2023-02-26T13:56:22;3.20;99.90
4727;DHT22;2377;51.734;8.950;2023-02-26T13:59:32;3.10;99.90
4727;DHT22;2377;51.734;8.950;2023-02-26T14:02:46;3.10;99.90
4727;DHT22;2377;51.734;8.950;2023-02-26T14:05:53;3.10;99.90
4727;DHT22;2377;51.734;8.950;2023-02-26T14:08:43;3.20;99.90
4727;DHT22;2377;51.734;8.950;2023-02-26T14:11:46;3.30;99.90
4727;DHT22;2377;51.734;8.950;2023-02-26T14:14:32;3.30;99.90
4727;DHT22;2377;51.734;8.950;2023-02-26T14:17:18;3.30;99.90
4727;DHT22;2377;51.734;8.950;2023-02-26T14:23:20;3.30;99.90
4727;DHT22;2377;51.734;8.950;2023-02-26T14:26:03;3.10;99.90
4727;DHT22;2377;51.734;8.950;2023-02-26T14:28:42;3.20;99.90
4727;DHT22;2377;51.734;8.950;2023-02-26T14:31:24;3.20;99.90
4727;DHT22;2377;51.734;8.950;2023-02-26T14:34:12;3.20;99.90
4727;DHT22;2377;51.734;8.950;2023-02-26T14:36:45;3.20;99.90
4727;DHT22;2377;51.734;8.950;2023-02-26T14:39:24;3.30;99.90
4727;DHT22;2377;51.734;8.950;2023-02-26T14:41:58;3.30;99.90
4727;DHT22;2377;51.734;8.950;2023-02-26T14:44:30;3.20;99.90
4727;DHT22;2377;51.734;8.950;2023-02-26T14:47:03;3.30;99.90
4727;DHT22;2377;51.734;8.950;2023-02-26T14:49:33;3.30;99.90
4727;DHT22;2377;51.734;8.950;2023-02-26T14:55:38;3.00;99.90
4727;DHT22;2377;51.734;8.950;2023-02-26T15:01:44;3.00;99.90
4727;DHT22;2377;51.734;8.950;2023-02-26T15:04:43;2.90;99.90
4727;DHT22;2377;51.734;8.950;2023-02-26T15:07:44;2.90;99.90
4727;DHT22;2377;51.734;8.950;2023-02-26T15:10:43;3.00;99.90
4727;DHT22;2377;51.734;8.950;2023-02-26T15:13:36;2.90;99.90
4727;DHT22;2377;51.734;8.950;2023-02-26T15:16:25;2.90;99.90
4727;DHT22;2377;51.734;8.950;2023-02-26T15:19:17;2.90;99.90
4727;DHT22;2377;51.734;8.950;2023-02-26T15:24:54;2.80;99.90
4727;DHT22;2377;51.734;8.950;2023-02-26T15:27:22;2.80;99.90
4727;DHT22;2377;51.734;8.950;2023-02-26T15:29:50;2.80;99.90
4727;DHT22;2377;51.734;8.950;2023-02-26T15:32:22;2.80;99.90
4727;DHT22;2377;51.734;8.950;2023-02-26T15:34:57;2.80;99.90
4727;DHT22;2377;51.734;8.950;2023-02-26T15:37:28;2.80;99.90
4727;DHT22;2377;51.734;8.950;2023-02-26T15:39:58;2.80;99.90
4727;DHT22;2377;51.734;8.950;2023-02-26T15:42:33;2.80;99.90
4727;DHT22;2377;51.734;8.950;2023-02-26T15:45:09;2.70;99.90
4727;DHT22;2377;51.734;8.950;2023-02-26T15:47:41;2.60;99.90
4727;DHT22;2377;51.734;8.950;2023-02-26T15:50:13;2.60;99.90
4727;DHT22;2377;51.734;8.950;2023-02-26T15:52:46;2.60;99.90
4727;DHT22;2377;51.734;8.950;2023-02-26T15:55:20;2.60;99.90
4727;DHT22;2377;51.734;8.950;2023-02-26T15:57:48;2.60;99.90
4727;DHT22;2377;51.734;8.950;2023-02-26T16:00:18;2.60;99.90
4727;DHT22;2377;51.734;8.950;2023-02-26T16:02:50;2.60;99.90
4727;DHT22;2377;51.734;8.950;2023-02-26T16:05:22;2.60;99.90
4727;DHT22;2377;51.734;8.950;2023-02-26T16:07:52;2.50;99.90
4727;DHT22;2377;51.734;8.950;2023-02-26T16:10:27;2.60;99.90
4727;DHT22;2377;51.734;8.950;2023-02-26T16:13:10;2.50;99.90
4727;DHT22;2377;51.734;8.950;2023-02-26T16:15:41;2.60;99.90
4727;DHT22;2377;51.734;8.950;2023-02-26T16:18:13;2.60;99.90
4727;DHT22;2377;51.734;8.950;2023-02-26T16:20:45;2.50;99.90
4727;DHT22;2377;51.734;8.950;2023-02-26T16:23:20;2.60;99.90
4727;DHT22;2377;51.734;8.950;2023-02-26T16:25:50;2.60;99.90
4727;DHT22;2377;51.734;8.950;2023-02-26T16:28:22;2.60;99.90
4727;DHT22;2377;51.734;8.950;2023-02-26T16:30:53;2.60;99.90
4727;DHT22;2377;51.734;8.950;2023-02-26T16:33:25;2.50;99.90
4727;DHT22;2377;51.734;8.950;2023-02-26T16:35:54;2.50;99.90
4727;DHT22;2377;51.734;8.950;2023-02-26T16:38:26;2.50;99.90
4727;DHT22;2377;51.734;8.950;2023-02-26T16:40:58;2.40;99.90
4727;DHT22;2377;51.734;8.950;2023-02-26T16:43:35;2.40;99.90
4727;DHT22;2377;51.734;8.950;2023-02-26T16:46:19;2.30;99.90
4727;DHT22;2377;51.734;8.950;2023-02-26T16:48:54;2.30;99.90
4727;DHT22;2377;51.734;8.950;2023-02-26T16:51:29;2.30;99.90
4727;DHT22;2377;51.734;8.950;2023-02-26T16:54:06;2.20;99.90
4727;DHT22;2377;51.734;8.950;2023-02-26T16:56:41;2.30;99.90
4727;DHT22;2377;51.734;8.950;2023-02-26T16:59:15;2.30;99.90
4727;DHT22;2377;51.734;8.950;2023-02-26T17:01:50;2.20;99.90
4727;DHT22;2377;51.734;8.950;2023-02-26T17:04:22;2.10;99.90
4727;DHT22;2377;51.734;8.950;2023-02-26T17:06:53;2.10;99.90
4727;DHT22;2377;51.734;8.950;2023-02-26T17:09:33;2.10;99.90
4727;DHT22;2377;51.734;8.950;2023-02-26T17:12:15;2.00;99.90
4727;DHT22;2377;51.734;8.950;2023-02-26T17:14:46;2.00;99.90
4727;DHT22;2377;51.734;8.950;2023-02-26T17:17:20;2.00;99.90
4727;DHT22;2377;51.734;8.950;2023-02-26T17:19:47;2.00;99.90
4727;DHT22;2377;51.734;8.950;2023-02-26T17:22:17;2.00;99.90
4727;DHT22;2377;51.734;8.950;2023-02-26T17:24:49;1.90;99.90
4727;DHT22;2377;51.734;8.950;2023-02-26T17:27:23;1.90;99.90
4727;DHT22;2377;51.734;8.950;2023-02-26T17:29:54;1.80;99.90
4727;DHT22;2377;51.734;8.950;2023-02-26T17:32:23;1.80;99.90
4727;DHT22;2377;51.734;8.950;2023-02-26T17:34:52;1.80;99.90
4727;DHT22;2377;51.734;8.950;2023-02-26T17:37:20;1.80;99.90
4727;DHT22;2377;51.734;8.950;2023-02-26T17:39:50;1.80;99.90
4727;DHT22;2377;51.734;8.950;2023-02-26T17:42:18;1.80;99.90
4727;DHT22;2377;51.734;8.950;2023-02-26T17:44:47;1.80;99.90
4727;DHT22;2377;51.734;8.950;2023-02-26T17:47:17;1.80;99.90
4727;DHT22;2377;51.734;8.950;2023-02-26T17:49:47;1.70;99.90
4727;DHT22;2377;51.734;8.950;2023-02-26T17:52:14;1.70;99.90
4727;DHT22;2377;51.734;8.950;2023-02-26T17:54:42;1.70;99.90